HISTORICAL SENSOR DATA

Sensor Data Report

DB LIVE
CURRENT TIME--:--:--
DEVICE NETWORK Gateway Status
13 ESP · realtime ~1s · history 60s
Weather WS-MOD-01
OFFLINE
Actuator ACT-MOD-01
OFFLINE
Mainboard L3 MB-L3-01
OFFLINE
Mainboard L5 MB-L5-01
OFFLINE
Remote AC AC-REMOTE-01
OFFLINE
PZEM L3-01 PWR-L3-01
OFFLINE
PZEM L3-02 PWR-L3-02
OFFLINE
PZEM L3-03 PWR-L3-03
OFFLINE
PZEM L3-04 PWR-L3-04
OFFLINE
PZEM L5-01 PWR-L5-01
OFFLINE
PZEM L5-02 PWR-L5-02
OFFLINE
PZEM L5-03 PWR-L5-03
OFFLINE
PZEM L5-04 PWR-L5-04
OFFLINE
REPORT FILTER

Periode & Sensor

DATABASE HISTORY
RESET
QUICK RANGE Hari ini 7 hari 30 hari
PERIODE31 Aug 2026sampai 06 Sep 2026
TOTAL DATA40,859sensor readings
MINIMUM-0.50sesuai filter
AVERAGE59.90sesuai filter
MAXIMUM11,921.20sesuai filter
REPORT RESULT

Data Sensor

31/08/2026 — 06/09/2026 EXPORT CSV
NOTANGGALWAKTUDEVICECHANNELSENSORVALUEUNIT
10801 02/09/2026 14:55:40 MB-L3-01Mainboard Lantai 3 L3-HFT-01 Heat Flow Temperature 1 29.40 °C
10802 02/09/2026 14:55:40 MB-L3-01Mainboard Lantai 3 L3-LUX-02 Illuminance / LUX 2 36.80 lux
10803 02/09/2026 14:55:40 MB-L3-01Mainboard Lantai 3 L3-SHT-01-RH SHT20 1 Humidity 48.70 %RH
10804 02/09/2026 14:55:40 MB-L3-01Mainboard Lantai 3 L3-AI-02 Analog Input 2 3.12 V
10805 02/09/2026 14:55:40 MB-L3-01Mainboard Lantai 3 L3-LUX-04 Illuminance / LUX 4 99.50 lux
10806 02/09/2026 14:55:40 MB-L3-01Mainboard Lantai 3 L3-HFT-02 Heat Flow Temperature 2 29.10 °C
10807 02/09/2026 14:55:40 MB-L3-01Mainboard Lantai 3 L3-LUX-03 Illuminance / LUX 3 125.50 lux
10808 02/09/2026 14:55:40 MB-L3-01Mainboard Lantai 3 L3-AI-03 Analog Input 3 3.12 V
10809 02/09/2026 14:55:40 MB-L3-01Mainboard Lantai 3 L3-SHT-03-RH SHT20 3 Humidity 49.20 %RH
10810 02/09/2026 14:55:40 MB-L3-01Mainboard Lantai 3 L3-SHT-02-RH SHT20 2 Humidity 48.40 %RH
10811 02/09/2026 14:55:40 MB-L3-01Mainboard Lantai 3 L3-BGT-01 Black Globe Temperature 1 29.80 °C
10812 02/09/2026 14:55:40 MB-L3-01Mainboard Lantai 3 L3-LUX-01 Illuminance / LUX 1 33.00 lux
10813 02/09/2026 14:55:39 MB-L5-01Mainboard Lantai 5 L5-SHT-03-RH SHT20 3 Humidity 49.00 %RH
10814 02/09/2026 14:55:39 MB-L5-01Mainboard Lantai 5 L5-HFT-02 Heat Flow Temperature 2 29.90 °C
10815 02/09/2026 14:55:39 MB-L5-01Mainboard Lantai 5 L5-HFT-01 Heat Flow Temperature 1 30.00 °C
10816 02/09/2026 14:55:39 MB-L5-01Mainboard Lantai 5 L5-AI-06 Analog Input 6 3.05 V
10817 02/09/2026 14:55:39 MB-L5-01Mainboard Lantai 5 L5-AI-05 Analog Input 5 3.05 V
10818 02/09/2026 14:55:39 MB-L5-01Mainboard Lantai 5 L5-AI-04 Analog Input 4 3.05 V
10819 02/09/2026 14:55:39 MB-L5-01Mainboard Lantai 5 L5-ST-02 Surface Temperature 2 30.40 °C
10820 02/09/2026 14:55:39 MB-L5-01Mainboard Lantai 5 L5-AI-03 Analog Input 3 3.05 V
10821 02/09/2026 14:55:39 MB-L5-01Mainboard Lantai 5 L5-ST-01 Surface Temperature 1 30.30 °C
10822 02/09/2026 14:55:39 MB-L5-01Mainboard Lantai 5 L5-AI-02 Analog Input 2 3.05 V
10823 02/09/2026 14:55:39 MB-L5-01Mainboard Lantai 5 L5-RAD-01 Radiation 1 1.00 W/m²
10824 02/09/2026 14:55:39 MB-L5-01Mainboard Lantai 5 L5-AI-01 Analog Input 1 3.05 V
10825 02/09/2026 14:55:39 MB-L5-01Mainboard Lantai 5 L5-SHT-02-T SHT20 2 Temperature 32.20 °C
10826 02/09/2026 14:55:39 MB-L5-01Mainboard Lantai 5 L5-LUX-01 Illuminance / LUX 1 207.20 lux
10827 02/09/2026 14:55:39 MB-L5-01Mainboard Lantai 5 L5-LUX-05 Illuminance / LUX 5 355.50 lux
10828 02/09/2026 14:55:39 MB-L5-01Mainboard Lantai 5 L5-LUX-02 Illuminance / LUX 2 114.00 lux
10829 02/09/2026 14:55:39 MB-L5-01Mainboard Lantai 5 L5-BGT-03 Black Globe Temperature 3 29.80 °C
10830 02/09/2026 14:55:39 MB-L5-01Mainboard Lantai 5 L5-SHT-03-T SHT20 3 Temperature 32.10 °C
10831 02/09/2026 14:55:39 MB-L5-01Mainboard Lantai 5 L5-BGT-02 Black Globe Temperature 2 30.00 °C
10832 02/09/2026 14:55:39 MB-L5-01Mainboard Lantai 5 L5-SHT-01-T SHT20 1 Temperature 32.40 °C
10833 02/09/2026 14:55:39 MB-L5-01Mainboard Lantai 5 L5-RAD-02 Radiation 2 1.00 W/m²
10834 02/09/2026 14:55:39 MB-L5-01Mainboard Lantai 5 L5-LUX-06 Illuminance / LUX 6 205.30 lux
10835 02/09/2026 14:55:39 MB-L5-01Mainboard Lantai 5 L5-LUX-04 Illuminance / LUX 4 192.70 lux
10836 02/09/2026 14:55:39 MB-L5-01Mainboard Lantai 5 L5-LUX-03 Illuminance / LUX 3 162.70 lux
10837 02/09/2026 14:55:39 MB-L5-01Mainboard Lantai 5 L5-SHT-02-RH SHT20 2 Humidity 48.60 %RH
10838 02/09/2026 14:55:39 MB-L5-01Mainboard Lantai 5 L5-BGT-01 Black Globe Temperature 1 30.00 °C
10839 02/09/2026 14:55:39 MB-L5-01Mainboard Lantai 5 L5-SHT-01-RH SHT20 1 Humidity 48.40 %RH
10840 02/09/2026 14:55:38 MB-L5-01Mainboard Lantai 5 L5-ST-02 Surface Temperature 2 30.40 °C
10841 02/09/2026 14:55:38 MB-L5-01Mainboard Lantai 5 L5-AI-03 Analog Input 3 3.05 V
10842 02/09/2026 14:55:38 MB-L3-01Mainboard Lantai 3 L3-AI-05 Analog Input 5 3.12 V
10843 02/09/2026 14:55:38 MB-L3-01Mainboard Lantai 3 L3-SHT-02-T SHT20 2 Temperature 32.00 °C
10844 02/09/2026 14:55:38 MB-L5-01Mainboard Lantai 5 L5-ST-01 Surface Temperature 1 30.20 °C
10845 02/09/2026 14:55:38 MB-L5-01Mainboard Lantai 5 L5-AI-02 Analog Input 2 3.05 V
10846 02/09/2026 14:55:38 MB-L3-01Mainboard Lantai 3 L3-BGT-03 Black Globe Temperature 3 29.10 °C
10847 02/09/2026 14:55:38 MB-L3-01Mainboard Lantai 3 L3-LUX-05 Illuminance / LUX 5 55.60 lux
10848 02/09/2026 14:55:38 MB-L3-01Mainboard Lantai 3 L3-ST-02 Surface Temperature 2 29.70 °C
10849 02/09/2026 14:55:38 MB-L5-01Mainboard Lantai 5 L5-RAD-01 Radiation 1 1.00 W/m²
10850 02/09/2026 14:55:38 MB-L5-01Mainboard Lantai 5 L5-AI-01 Analog Input 1 3.05 V
10851 02/09/2026 14:55:38 MB-L5-01Mainboard Lantai 5 L5-SHT-02-T SHT20 2 Temperature 32.20 °C
10852 02/09/2026 14:55:38 MB-L3-01Mainboard Lantai 3 L3-AI-06 Analog Input 6 3.12 V
10853 02/09/2026 14:55:38 MB-L5-01Mainboard Lantai 5 L5-LUX-01 Illuminance / LUX 1 204.60 lux
10854 02/09/2026 14:55:38 MB-L3-01Mainboard Lantai 3 L3-LUX-06 Illuminance / LUX 6 26.00 lux
10855 02/09/2026 14:55:38 MB-L3-01Mainboard Lantai 3 L3-AI-01 Analog Input 1 3.12 V
10856 02/09/2026 14:55:38 MB-L5-01Mainboard Lantai 5 L5-LUX-05 Illuminance / LUX 5 355.50 lux
10857 02/09/2026 14:55:38 MB-L3-01Mainboard Lantai 3 L3-SHT-01-T SHT20 1 Temperature 32.10 °C
10858 02/09/2026 14:55:38 MB-L3-01Mainboard Lantai 3 L3-HFT-01 Heat Flow Temperature 1 29.40 °C
10859 02/09/2026 14:55:38 MB-L5-01Mainboard Lantai 5 L5-LUX-02 Illuminance / LUX 2 141.80 lux
10860 02/09/2026 14:55:38 MB-L5-01Mainboard Lantai 5 L5-BGT-03 Black Globe Temperature 3 29.70 °C
10861 02/09/2026 14:55:38 MB-L5-01Mainboard Lantai 5 L5-SHT-03-T SHT20 3 Temperature 32.10 °C
10862 02/09/2026 14:55:38 MB-L3-01Mainboard Lantai 3 L3-LUX-02 Illuminance / LUX 2 59.20 lux
10863 02/09/2026 14:55:38 MB-L3-01Mainboard Lantai 3 L3-SHT-01-RH SHT20 1 Humidity 48.50 %RH
10864 02/09/2026 14:55:38 MB-L5-01Mainboard Lantai 5 L5-BGT-02 Black Globe Temperature 2 29.90 °C
10865 02/09/2026 14:55:38 MB-L3-01Mainboard Lantai 3 L3-AI-02 Analog Input 2 3.12 V
10866 02/09/2026 14:55:38 MB-L5-01Mainboard Lantai 5 L5-SHT-01-T SHT20 1 Temperature 32.40 °C
10867 02/09/2026 14:55:38 MB-L3-01Mainboard Lantai 3 L3-LUX-04 Illuminance / LUX 4 84.70 lux
10868 02/09/2026 14:55:38 MB-L5-01Mainboard Lantai 5 L5-RAD-02 Radiation 2 1.00 W/m²
10869 02/09/2026 14:55:38 MB-L3-01Mainboard Lantai 3 L3-HFT-02 Heat Flow Temperature 2 29.00 °C
10870 02/09/2026 14:55:38 MB-L5-01Mainboard Lantai 5 L5-LUX-06 Illuminance / LUX 6 205.30 lux
10871 02/09/2026 14:55:38 MB-L5-01Mainboard Lantai 5 L5-LUX-04 Illuminance / LUX 4 207.40 lux
10872 02/09/2026 14:55:38 MB-L3-01Mainboard Lantai 3 L3-LUX-03 Illuminance / LUX 3 100.20 lux
10873 02/09/2026 14:55:38 MB-L3-01Mainboard Lantai 3 L3-AI-03 Analog Input 3 3.12 V
10874 02/09/2026 14:55:38 MB-L5-01Mainboard Lantai 5 L5-LUX-03 Illuminance / LUX 3 170.20 lux
10875 02/09/2026 14:55:38 MB-L3-01Mainboard Lantai 3 L3-SHT-03-RH SHT20 3 Humidity 49.20 %RH
10876 02/09/2026 14:55:38 MB-L5-01Mainboard Lantai 5 L5-SHT-02-RH SHT20 2 Humidity 48.50 %RH
10877 02/09/2026 14:55:38 MB-L3-01Mainboard Lantai 3 L3-SHT-02-RH SHT20 2 Humidity 48.40 %RH
10878 02/09/2026 14:55:38 MB-L5-01Mainboard Lantai 5 L5-BGT-01 Black Globe Temperature 1 30.00 °C
10879 02/09/2026 14:55:38 MB-L5-01Mainboard Lantai 5 L5-SHT-01-RH SHT20 1 Humidity 48.50 %RH
10880 02/09/2026 14:55:38 MB-L3-01Mainboard Lantai 3 L3-BGT-01 Black Globe Temperature 1 29.80 °C
10881 02/09/2026 14:55:38 MB-L3-01Mainboard Lantai 3 L3-LUX-01 Illuminance / LUX 1 33.00 lux
10882 02/09/2026 14:55:38 MB-L3-01Mainboard Lantai 3 L3-RAD-02 Radiation 2 1.00 W/m²
10883 02/09/2026 14:55:38 MB-L5-01Mainboard Lantai 5 L5-SHT-03-RH SHT20 3 Humidity 49.20 %RH
10884 02/09/2026 14:55:38 MB-L5-01Mainboard Lantai 5 L5-HFT-02 Heat Flow Temperature 2 29.90 °C
10885 02/09/2026 14:55:38 MB-L3-01Mainboard Lantai 3 L3-SHT-03-T SHT20 3 Temperature 31.80 °C
10886 02/09/2026 14:55:38 MB-L5-01Mainboard Lantai 5 L5-HFT-01 Heat Flow Temperature 1 30.10 °C
10887 02/09/2026 14:55:38 MB-L5-01Mainboard Lantai 5 L5-AI-06 Analog Input 6 3.05 V
10888 02/09/2026 14:55:38 MB-L3-01Mainboard Lantai 3 L3-AI-04 Analog Input 4 3.12 V
10889 02/09/2026 14:55:38 MB-L3-01Mainboard Lantai 3 L3-BGT-02 Black Globe Temperature 2 29.80 °C
10890 02/09/2026 14:55:38 MB-L3-01Mainboard Lantai 3 L3-RAD-01 Radiation 1 1.00 W/m²
10891 02/09/2026 14:55:38 MB-L5-01Mainboard Lantai 5 L5-AI-05 Analog Input 5 3.05 V
10892 02/09/2026 14:55:38 MB-L3-01Mainboard Lantai 3 L3-ST-01 Surface Temperature 1 29.80 °C
10893 02/09/2026 14:55:38 MB-L5-01Mainboard Lantai 5 L5-AI-04 Analog Input 4 3.05 V
10894 02/09/2026 14:55:36 MB-L5-01Mainboard Lantai 5 L5-SHT-02-T SHT20 2 Temperature 32.20 °C
10895 02/09/2026 14:55:36 MB-L3-01Mainboard Lantai 3 L3-AI-06 Analog Input 6 3.12 V
10896 02/09/2026 14:55:36 MB-L5-01Mainboard Lantai 5 L5-LUX-01 Illuminance / LUX 1 211.50 lux
10897 02/09/2026 14:55:36 MB-L3-01Mainboard Lantai 3 L3-LUX-06 Illuminance / LUX 6 30.30 lux
10898 02/09/2026 14:55:36 MB-L3-01Mainboard Lantai 3 L3-AI-01 Analog Input 1 3.12 V
10899 02/09/2026 14:55:36 MB-L5-01Mainboard Lantai 5 L5-LUX-05 Illuminance / LUX 5 426.40 lux
10900 02/09/2026 14:55:36 MB-L3-01Mainboard Lantai 3 L3-SHT-01-T SHT20 1 Temperature 32.20 °C
Menampilkan maksimal 100 data per halaman